Scroll down
FLIGHT INFORMATION
American Airlines

AAL1408

At Arrival Gate

KTPA
 KORD
DATE: 2020-06-21
GATE:  -
GATE DEPARTURE: 21:48
TAKEOFF: 21:58
DATE: 2020-06-22
GATE:  -
LANDING: 00:20
GATE ARRIVAL: 00:27
FLIGHT DATA
Crew: 
Speed: 
479 kts
Altitude: 
36,114 ft
Stage Length: 
881.0 nm
Block Time: 
2.7 hrs
Flight Time: 
2.4 hrs
Fuel Used: 
15,877 lb
Cleared Route: 
TRACK DATA
50,000 ft 1,000 kts
AIRCRAFT INFO AND CUMULATIVE STATS
Aircraft Type: 
B738BW
Registration: 
SELCAL: 
CPBJ
MSN/LN: 
33323 / 4655
Operator: 
Total Flights: 
19
Total Block Time: 
35.3 hrs
Total Flight Time: 
29.8 hrs
Total Fuel Time: 
205,019 lb
DATALINK LOG | Newest first | Current as of: 2021-01-27 14:01:16
LABEL SEQUENCE CONTENT Dn/Up
QD294100:27 12.6▼ Dn
QC223400:20▼ Dn
2U0244KORD 212251Z 11012KT 10SM FEW050 BKN250 27/16 A2987 RMK AO2 SLP109 CB DSNT S T02720156 $▲ Up
2S0316KORD▼ Dn
463852/OV FAM /TM 2337 /FL360 /TP B738 /SK SCT /TA -51 /WV 229/27 /RM NONE▼ Dn
2U3612KORD 212251Z 11012KT 10SM FEW050 BKN250 27/16 A2987 RMK AO2 SLP109 CB DSNT S T02720156 $▲ Up
2S3752KORD▼ Dn
5Z375121 JUN 20 23:35:55z / FLT DECK GOOD / ACF POS GOOD / GRND SERVICES GOOD / MAINT GOOD▼ Dn
GA3751ADVANCED GATE ASSIGNMENTS NOT YET AVAILABLE AT THIS AIRPORT▲ Up
GR3751KORD 00:29 MAAS 00 YP/UM 01/02 WCHR/S/C 03/04/05 HI-VAL NO DIPL/VIP NO▼ Dn
5R0926LACEN 22:07z FL196 PATOY 22:11z DEANR 309 25.4 -10 / RW10C 00:32z▼ Dn
460826/OV LACEN /TM 2206 /FL180 /TP B738 /SK SCT /TA -8 /WV 249/10 /TB MOD /RM NONE▼ Dn
QB001821:58▼ Dn
2U4801KTPA 212053Z 26011KT 10SM FEW040TCU FEW300 32/21 A3004 RMK AO2 SLP171 CB DSNT SE TCU NE AND SE T03170206 57012▲ Up
QA501121:48 28.6▼ Dn
2S5011KTPA▼ Dn
A34103CLEARED TO KORD VIA KTPA KORD AAL1408 N940NN . SQUAWK 2557.▲ Up
B34103KTPA KORD AAL1408 N940NN ▼ Dn
A33901CLEARED TO KORD VIA KCLT KCLT AAL5289 N940NN . SQUAWK 0713.▲ Up
B33901KCLT KCLT AAL5289 N940NN ▼ Dn
5U3618KORD 220130Z 09008KT 10SM SCT050 BKN200 28/16 A2988▲ Up
2U3612KTPA 212053Z 26011KT 10SM FEW040TCU FEW300 32/21 A3004 RMK AO2 SLP171 CB DSNT SE TCU NE AND SE T03170206 57012▲ Up
5S3807KORD▼ Dn
2S3807KTPA▼ Dn
Q03659[LINK ACK]▲ Up
Q03659[LINK TEST]▼ Dn


AIRCRAFT HISTORY
FLIGHT DATE FLIGHT NO. ORIGIN DESTINATION CLEARED ROUTE BLOCK TIME FLIGHT TIME FUEL USED PILOT
2020-10-19AAL1476KSNA KPHX KSNA STREL TANGL SHIRR DANAH PIGGN WIILD FLWRZ BLCKD CSTWY CNERY BLH SCOLE SPINK SNRRA SWOON HYDRR GEELA AGGLA CHAVO LEMOE ZERLO RW25L1.2 hrs0.9 hrs6,421 lbMichael Collier
2020-10-17AAL486KPHX KSNA KPHX WULKO KEENS IZZZO CULTS HRRBR EMLLD LITNG WTTCH DRTHI CHURO BRCKK ROADE PHIYA DSNEE JWARD HUKEM RW20R1.2 hrs0.9 hrs6,134 lbMichael Collier
2020-10-16AAL791KLAS KPHX KLAS RBELL ROPPR CEASR HITME COWBY TENTS PANTD DUTEY MAIER BRUSR ANNTI ZILUB BRIEZ KUCOO JURAZ JAGAL RW261.1 hrs0.9 hrs5,673 lbMichael Collier
2020-09-08AAL1858KLAS KLAS KLAS RBELL ROPPR CEASR HITME COWBY TENTS PANTD DUTEY MAIER BRUSR ANNTI ZILUB BRIEZ KUCOO JURAZ JAGAL RW261.1 hrs0.7 hrs5,261 lbMichael Collier
2020-08-10AAL1809KSJC KLAS KSJC TECKY NTELL CABAB VIKSN KENNO ESSAA BTY KLAS1.6 hrs1.2 hrs9,094 lbKurt Kalbfleisch
2020-08-08AAL2735KMIA KSJC KMIA POTTR HITAG KAINS FORKK HOSFU BORLE WINCO CHRRI SRQ PIE ENDEW SWABE PLYER LEGGT SZW MAI CEW CATLN MEI MHZ KAMEN STAGE MIXIE BERKE EIC BYP PNH FTI TANER TBC CORKR CUNDY RENTT LAS JEDNA CENIT TUMBE ESSAA KENNO VIKSN CABAB NTELL TROXX SILCN VLLEY GUUYY WLSSN GSTEE KLIDE JENES RW30L5.5 hrs5.3 hrs34,987 lbGeorge
2020-07-25AAL2195KBOS KMIA KBOS SSOXS BUZRD SEY HTO HTO15 RIFLE GEDIC EMJAY YAZUU ZIZZI WARNN SWL CEBEE WETRO DIWNB SEELO JENKS HOAGG BGDOG JORAY KMIA3 hrs2.7 hrs14,975 lbMike Dryden
2020-07-19AAL2384KORD KBOS KORD EBAKE WISMO POSTS PADDE SVM DKK PONCT KBOS2.2 hrs1.8 hrs11,081 lbMike Dryden
2020-07-17AAL2488KCLT KORD KCLT LACHN YNGUN BOBZY BRAYN REWET HALLS BAZOO BNA FTZ GROOV CASHN VINCA MAROC TRICH TRTLL HIHRY RINNO JORJO MONKZ TONIE HAZIL RW28C2.3 hrs1.8 hrs13,395 lbGeorge
2020-07-12AAL2895KORD KCLT KORD EARND ELANR EMMLY ERECO IIU SKYWA NIZAM COMDY BLAYQ PHAYE JJENY FILPZ ADOWN INWAL JELNO CEDOX VALLL NIVSE RW36C1.8 hrs1.4 hrs10,882 lbGeorge
2020-07-11AAL4520KSDF KORD KSDF RRROE STREP MZZ FRIDG WATSN MKITA ESSPO LAACY IZARD CABIJ MONKZ JORJO POSSM HAZIL RW28C1.2 hrs0.8 hrs7,094 lbGeorge
2020-07-11AAL4076KORD KSDF KORD DENNT DARCY DREGS DONVE TTH SACKO CHERI IIU AWLEE RW35L1.1 hrs0.9 hrs6,702 lbGeorge
2020-07-09AAL4505KMSP KORD KMSP PEDLN ZONVO DBQ JVL BULLZ TEDDY KRENA HAZIL RW28C1.4 hrs1.1 hrs8,042 lbGeorge
2020-07-02AAL1282KORD KMSP KORD PMPKN NEATO DLLAN RONIC KAMMA BEERI ROBBY KBULL ZZING HENDR CMAAC KKILR HUGGI KRISP AFTYN CMMOE COZZZ HAMML RW12L1.2 hrs1 hrs6,903 lbGeorge
2020-06-21AAL1408KTPA KORD 2.7 hrs2.4 hrs15,877 lbGeorge
2020-06-21AAL1632KCLT KTPA 1.5 hrs1.2 hrs8,528 lbGeorge
2020-06-21AAL5289KORD KCLT KORD EARND ELANR EMMLY ERECO IIU SKYWA NIZAM COMDY BLAYQ PHAYE JJENY FILPZ ADOWN INWAL JELNO CEDOX VALLL NIVSE RW36C1.9 hrs1.5 hrs10,595 lbGeorge
2020-06-20AAL1463KDFW KORD KDFW SPERA JGIRL CORTS BIGGD CMORE BLECO ZEMMA TUL DOSOA MCI IRK LOAMY KEOKK DRAMS RYELY BDF BYLAW BENKY NEWRK AHSTN PETAH JORJO MONKZ TONIE HAZIL RW28C2.1 hrs1.8 hrs13,059 lbGeorge
2020-06-19AAL519KBHM KDFW KBHM JOEYE IGB MLU YUYUN WAITT PLMER OUTLN VEEYO BEREE BELLS TACKE WARDZ DIETZ WHOOT HEDMN KDFW1.9 hrs1.6 hrs10,315 lbChemtrails